Flight Track Log - Related Links

Times and Time Zones

All times are in EDT time to prevent confusion due to time zone crossing. See the N425RG flight status page for this flight to view local times or setup timezone preferences in your user account.

Time Position Orientation Groundspeed Altitude Reporting Facility
EDT Latitude Longitude Course Direction KTS MPH feet Rate Location/Type
Thu 10:49:30 AM 36.4000 -86.4000 39° Northeast 116 133 1,400  Level Nashville TRACON
Thu 10:49:48 AM 36.4167 -86.3833 39° Northeast 126 145 1,600 733 Climbing Nashville TRACON
Thu 10:51:00 AM 36.4333 -86.3333 67° East 139 160 2,500 727 Climbing Nashville TRACON
Thu 10:52:00 AM 36.4667 -86.3000 39° Northeast 139 160 3,200 700 Climbing Nashville TRACON
Thu 10:53:00 AM 36.4833 -86.2667 58° Northeast 138 159 3,900 677 Climbing Nashville TRACON
Thu 10:54:13 AM 36.5153 -86.2336 40° Northeast 137 158 4,700 667 Climbing Indianapolis Center
Thu 10:55:15 AM 36.5406 -86.1961 50° Northeast 137 158 5,400 677 Climbing Indianapolis Center
Thu 10:56:26 AM 36.5717 -86.1519 49° Northeast 138 159 6,200 677 Climbing Memphis Center
Thu 10:57:28 AM 36.6036 -86.1056 49° Northeast 147 169 6,900 626 Climbing Memphis Center
Thu 10:58:21 AM 36.6258 -86.0722 50° Northeast 147 169 7,400 581 Climbing Indianapolis Center
Thu 10:59:32 AM 36.6569 -86.0253 50° Northeast 148 170 8,100 632 Climbing Memphis Center
Thu 11:00:34 AM 36.6844 -85.9858 49° Northeast 148 170 8,800 624 Climbing Memphis Center
Thu 11:01:37 AM 36.7133 -85.9444 49° Northeast 149 171 9,400 576 Climbing Memphis Center
Thu 11:02:39 AM 36.7394 -85.8997 54° Northeast 155 178 10,000 629 Climbing Memphis Center
Thu 11:03:41 AM 36.7672 -85.8564 51° Northeast 155 178 10,700 726 Climbing Memphis Center
Thu 11:04:43 AM 36.7997 -85.8064 51° Northeast 155 178 11,500 677 Climbing Memphis Center
Thu 11:05:45 AM 36.8258 -85.7600 55° Northeast 157 181 12,100 532 Climbing Memphis Center
Thu 11:06:47 AM 36.8517 -85.7147 55° Northeast 157 181 12,600 532 Climbing Memphis Center
Thu 11:07:49 AM 36.8783 -85.6683 54° Northeast 158 182 13,200 526 Climbing Memphis Center
Thu 11:08:41 AM 36.9031 -85.6325 49° Northeast 159 183 13,600 526 Climbing Indianapolis Center
Thu 11:09:43 AM 36.9331 -85.5869 51° Northeast 164 189 14,200 532 Climbing Indianapolis Center
Thu 11:10:45 AM 36.9622 -85.5419 51° Northeast 165 190 14,700 339 Climbing Indianapolis Center
Thu 11:11:47 AM 36.9897 -85.4919 55° Northeast 165 190 14,900 48 Climbing Indianapolis Center
Thu 11:12:49 AM 37.0264 -85.4303 53° Northeast 181 208 14,800 -48 Descending Indianapolis Center
Thu 11:13:51 AM 37.0606 -85.3781 51° Northeast 189 217 14,800  Level Indianapolis Center
Thu 11:14:53 AM 37.0964 -85.3283 48° Northeast 190 219 14,800  Level Indianapolis Center
Thu 11:15:55 AM 37.1308 -85.2778 49° Northeast 190 219 14,800  Level Indianapolis Center
Thu 11:16:57 AM 37.1656 -85.2286 48° Northeast 189 217 14,800 48 Level Indianapolis Center
Thu 11:18:00 AM 37.2000 -85.1781 49° Northeast 190 219 14,900 48 Climbing Indianapolis Center
Thu 11:19:02 AM 37.2375 -85.1153 53° Northeast 189 217 14,900  Level Indianapolis Center
Thu 11:20:04 AM 37.2703 -85.0631 52° Northeast 190 219 14,900  Level Indianapolis Center
Thu 11:21:06 AM 37.3033 -85.0133 50° Northeast 190 219 14,900  Level Indianapolis Center
Thu 11:22:08 AM 37.3397 -84.9639 47° Northeast 190 219 14,900  Level Indianapolis Center
Thu 11:23:10 AM 37.3742 -84.9153 48° Northeast 189 217 14,900  Level Indianapolis Center
Thu 11:24:12 AM 37.4122 -84.8544 52° Northeast 189 217 14,900  Level Indianapolis Center
Thu 11:25:14 AM 37.4422 -84.7992 56° Northeast 190 219 14,900  Level Indianapolis Center
Thu 11:26:16 AM 37.4703 -84.7425 58° Northeast 190 219 14,900 49 Level Indianapolis Center
Thu 11:27:17 AM 37.4972 -84.6811 61° Northeast 195 224 15,000  Climbing Indianapolis Center
Thu 11:28:19 AM 37.5181 -84.6169 68° East 197 227 14,900 -48 Descending Indianapolis Center
Thu 11:29:21 AM 37.5489 -84.5614 55° Northeast 197 227 14,900 -48 Level Indianapolis Center
Thu 11:30:23 AM 37.5900 -84.5000 50° Northeast 195 224 14,800  Descending Indianapolis Center
Thu 11:31:25 AM 37.6250 -84.4506 48° Northeast 194 223 14,900  Climbing Indianapolis Center
Thu 11:32:27 AM 37.6594 -84.4011 49° Northeast 191 220 14,800 -48 Descending Indianapolis Center
Thu 11:33:29 AM 37.6956 -84.3511 48° Northeast 191 220 14,800  Level Indianapolis Center
Thu 11:34:31 AM 37.7306 -84.3006 49° Northeast 191 220 14,800  Level Indianapolis Center
Thu 11:35:33 AM 37.7656 -84.2522 48° Northeast 190 219 14,800 48 Level Indianapolis Center
Thu 11:36:35 AM 37.8075 -84.1931 48° Northeast 190 219 14,900 48 Climbing Indianapolis Center
Thu 11:37:37 AM 37.8414 -84.1444 49° Northeast 189 217 14,900  Level Indianapolis Center
Thu 11:38:39 AM 37.8783 -84.0936 47° Northeast 190 219 14,900  Level Indianapolis Center
Thu 11:39:40 AM 37.9125 -84.0436 49° Northeast 190 219 14,900  Level Indianapolis Center
Thu 11:40:42 AM 37.9489 -83.9931 48° Northeast 191 220 14,900  Level Indianapolis Center
Thu 11:41:44 AM 37.9847 -83.9419 48° Northeast 191 220 14,900  Level Indianapolis Center
Thu 11:42:46 AM 38.0264 -83.8825 48° Northeast 191 220 14,900 48 Level Indianapolis Center
Thu 11:43:48 AM 38.0622 -83.8308 49° Northeast 192 221 15,000 48 Climbing Indianapolis Center
Thu 11:44:50 AM 38.0989 -83.7800 47° Northeast 192 221 15,000 -48 Level Indianapolis Center
Thu 11:45:52 AM 38.1333 -83.7297 49° Northeast 192 221 14,900 -48 Descending Indianapolis Center
Thu 11:46:54 AM 38.1678 -83.6781 50° Northeast 192 221 14,900  Level Indianapolis Center
Thu 11:47:56 AM 38.2025 -83.6289 48° Northeast 191 220 14,900  Level Indianapolis Center
Thu 11:48:58 AM 38.2372 -83.5761 50° Northeast 191 220 14,900  Level Indianapolis Center
Thu 11:49:59 AM 38.2764 -83.5156 51° Northeast 190 219 14,900  Level Indianapolis Center
Thu 11:51:01 AM 38.3089 -83.4661 50° Northeast 189 217 14,900  Level Indianapolis Center
Thu 11:52:03 AM 38.3431 -83.4136 50° Northeast 189 217 14,900  Level Indianapolis Center
Thu 11:53:05 AM 38.3769 -83.3617 50° Northeast 189 217 14,900  Level Indianapolis Center
Thu 11:54:07 AM 38.4114 -83.3081 51° Northeast 190 219 14,900  Level Indianapolis Center
Thu 11:55:09 AM 38.4453 -83.2556 50° Northeast 191 220 14,900  Level Indianapolis Center
Thu 11:56:11 AM 38.4867 -83.1961 48° Northeast 191 220 14,900  Level Indianapolis Center
Thu 11:57:13 AM 38.5208 -83.1417 51° Northeast 192 221 14,900  Level Indianapolis Center
Thu 11:58:15 AM 38.5547 -83.0892 50° Northeast 192 221 14,900  Level Indianapolis Center
Thu 11:59:16 AM 38.5897 -83.0356 50° Northeast 192 221 14,900  Level Indianapolis Center
Thu 12:00:18 PM 38.6250 -82.9817 50° Northeast 193 222 14,900  Level Indianapolis Center
Thu 12:01:20 PM 38.6625 -82.9253 50° Northeast 198 228 14,900  Level Indianapolis Center
Thu 12:02:22 PM 38.6978 -82.8703 51° Northeast 199 229 14,900  Level Indianapolis Center
Thu 12:03:24 PM 38.7397 -82.8031 51° Northeast 200 230 14,900  Level Indianapolis Center
Thu 12:04:26 PM 38.7750 -82.7492 50° Northeast 200 230 14,900  Level Indianapolis Center
Thu 12:05:28 PM 38.8094 -82.6931 52° Northeast 200 230 14,900  Level Indianapolis Center
Thu 12:06:30 PM 38.8433 -82.6375 52° Northeast 200 230 14,900  Level Indianapolis Center
Thu 12:07:31 PM 38.8797 -82.5803 51° Northeast 200 230 14,900  Level Indianapolis Center
Thu 12:08:33 PM 38.9144 -82.5231 52° Northeast 201 231 14,900  Level Indianapolis Center
Thu 12:09:35 PM 38.9511 -82.4669 50° Northeast 201 231 14,900  Level Indianapolis Center
Thu 12:10:37 PM 38.9869 -82.4092 51° Northeast 202 232 14,900  Level Indianapolis Center
Thu 12:11:39 PM 39.0281 -82.3411 52° Northeast 202 232 14,900  Level Indianapolis Center
Thu 12:12:41 PM 39.0636 -82.2861 50° Northeast 202 232 14,900  Level Indianapolis Center
Thu 12:13:43 PM 39.0981 -82.2278 53° Northeast 202 232 14,900  Level Indianapolis Center
Thu 12:14:44 PM 39.1342 -82.1700 51° Northeast 202 232 14,900  Level Indianapolis Center
Thu 12:15:46 PM 39.1714 -82.1128 50° Northeast 203 234 14,900  Level Indianapolis Center
Thu 12:16:48 PM 39.2067 -82.0550 52° Northeast 203 234 14,900  Level Indianapolis Center
Thu 12:17:50 PM 39.2428 -81.9975 51° Northeast 203 234 14,900  Level Indianapolis Center
Thu 12:18:52 PM 39.2786 -81.9403 51° Northeast 203 234 14,900  Level Indianapolis Center
Thu 12:19:54 PM 39.3219 -81.8725 50° Northeast 203 234 14,900  Level Indianapolis Center
Thu 12:20:56 PM 39.3569 -81.8169 51° Northeast 203 234 14,900  Level Indianapolis Center
Thu 12:21:58 PM 39.3922 -81.7608 51° Northeast 203 234 14,900  Level Indianapolis Center
Thu 12:23:00 PM 39.4289 -81.7047 50° Northeast 202 232 14,900  Level Indianapolis Center
Thu 12:24:02 PM 39.4653 -81.6481 50° Northeast 203 234 14,900  Level Indianapolis Center
Thu 12:25:04 PM 39.5011 -81.5892 52° Northeast 205 236 14,900  Level Indianapolis Center
Thu 12:26:06 PM 39.5369 -81.5328 51° Northeast 205 236 14,900  Level Indianapolis Center
Thu 12:27:08 PM 39.5794 -81.4644 51° Northeast 204 235 14,900  Level Indianapolis Center
Thu 12:28:09 PM 39.6156 -81.4069 51° Northeast 204 235 14,900  Level Indianapolis Center
Thu 12:29:01 PM 39.6439 -81.3622 51° Northeast 205 236 14,900  Level Cleveland Center
Thu 12:30:03 PM 39.6800 -81.3047 51° Northeast 205 236 14,900  Level Cleveland Center
Thu 12:31:05 PM 39.7147 -81.2458 53° Northeast 205 236 14,900  Level Cleveland Center
Thu 12:32:07 PM 39.7575 -81.1761 51° Northeast 205 236 14,900  Level Cleveland Center
Thu 12:33:09 PM 39.7928 -81.1169 52° Northeast 206 237 14,900  Level Cleveland Center
Thu 12:34:11 PM 39.8286 -81.0575 52° Northeast 206 237 14,900  Level Cleveland Center
Thu 12:35:13 PM 39.8636 -80.9986 52° Northeast 207 238 14,900  Level Cleveland Center
Thu 12:36:16 PM 39.8983 -80.9406 52° Northeast 206 237 14,900  Level Cleveland Center
Thu 12:37:18 PM 39.9422 -80.8717 50° Northeast 206 237 14,900  Level Cleveland Center
Thu 12:38:20 PM 39.9783 -80.8133 51° Northeast 206 237 14,900  Level Cleveland Center
Thu 12:39:22 PM 40.0136 -80.7547 52° Northeast 206 237 14,900  Level Cleveland Center
Thu 12:40:24 PM 40.0489 -80.6975 51° Northeast 206 237 14,900  Level Cleveland Center
Thu 12:41:26 PM 40.0842 -80.6383 52° Northeast 206 237 14,900  Level Cleveland Center
Thu 12:42:28 PM 40.1192 -80.5806 52° Northeast 205 236 14,900  Level Cleveland Center
Thu 12:43:31 PM 40.1600 -80.5092 53° Northeast 205 236 14,900  Level Cleveland Center
Thu 12:44:33 PM 40.1944 -80.4506 52° Northeast 205 236 14,900  Level Cleveland Center
Thu 12:45:35 PM 40.2286 -80.3925 52° Northeast 204 235 14,900 48 Level Cleveland Center
Thu 12:46:37 PM 40.2631 -80.3325 53° Northeast 204 235 15,000 48 Climbing Cleveland Center
Thu 12:47:39 PM 40.2969 -80.2736 53° Northeast 204 235 15,000  Level Cleveland Center
Thu 12:48:41 PM 40.3378 -80.2028 53° Northeast 205 236 15,000  Level Cleveland Center
Thu 12:49:44 PM 40.3725 -80.1425 53° Northeast 206 237 15,000  Level Cleveland Center
Thu 12:50:46 PM 40.4078 -80.0825 52° Northeast 206 237 15,000  Level Cleveland Center
Thu 12:51:48 PM 40.4431 -80.0231 52° Northeast 206 237 15,000  Level Cleveland Center
Thu 12:52:50 PM 40.4831 -79.9544 53° Northeast 206 237 15,000  Level Cleveland Center
Thu 12:53:52 PM 40.5183 -79.8944 52° Northeast 206 237 15,000  Level Cleveland Center
Thu 12:54:54 PM 40.5539 -79.8350 52° Northeast 206 237 15,000  Level Cleveland Center
Thu 12:55:57 PM 40.5897 -79.7744 52° Northeast 207 238 15,000  Level Cleveland Center
Thu 12:56:59 PM 40.6267 -79.7139 51° Northeast 209 241 15,000  Level Cleveland Center
Thu 12:58:01 PM 40.6708 -79.6406 52° Northeast 210 242 15,000  Level Cleveland Center
Thu 12:59:03 PM 40.7075 -79.5781 52° Northeast 211 243 15,000  Level Cleveland Center
Thu 01:00:05 PM 40.7442 -79.5167 52° Northeast 212 244 15,000  Level Cleveland Center
Thu 01:01:07 PM 40.7803 -79.4558 52° Northeast 212 244 15,000 -48 Level Cleveland Center
Thu 01:02:10 PM 40.8156 -79.3933 53° Northeast 212 244 14,900 -48 Descending Cleveland Center
Thu 01:03:12 PM 40.8581 -79.3181 53° Northeast 212 244 14,900  Level Cleveland Center
Thu 01:04:14 PM 40.8950 -79.2556 52° Northeast 213 245 14,900  Level Cleveland Center
Thu 01:05:16 PM 40.9317 -79.1919 53° Northeast 214 246 14,900  Level Cleveland Center
Thu 01:06:18 PM 40.9675 -79.1275 54° Northeast 215 247 14,900  Level Cleveland Center
Thu 01:08:23 PM 41.0383 -78.9981 54° Northeast 218 251 14,900  Level Cleveland Center
Thu 01:09:25 PM 41.0808 -78.9200 54° Northeast 218 251 14,900  Level Cleveland Center
Thu 01:10:27 PM 41.1161 -78.8550 54° Northeast 218 251 14,900  Level Cleveland Center
Thu 01:11:29 PM 41.1519 -78.7906 54° Northeast 218 251 14,900  Level Cleveland Center
Thu 01:12:31 PM 41.1883 -78.7267 53° Northeast 218 251 14,900  Level Cleveland Center
Thu 01:13:33 PM 41.2247 -78.6622 53° Northeast 218 251 14,900  Level Cleveland Center
Thu 01:14:36 PM 41.2681 -78.5881 52° Northeast 217 250 14,900  Level Cleveland Center
Thu 01:15:38 PM 41.3028 -78.5256 54° Northeast 215 247 14,900  Level Cleveland Center
Thu 01:16:40 PM 41.3381 -78.4600 54° Northeast 215 247 14,900 48 Level Cleveland Center
Thu 01:17:42 PM 41.3775 -78.3931 52° Northeast 215 247 15,000  Climbing Cleveland Center
Thu 01:18:44 PM 41.4067 -78.3344 56° Northeast 211 243 14,900 -48 Descending Cleveland Center
Thu 01:19:46 PM 41.4397 -78.2706 55° Northeast 211 243 14,900 48 Level Cleveland Center
Thu 01:20:49 PM 41.4808 -78.1939 54° Northeast 211 243 15,000  Climbing Cleveland Center
Thu 01:21:51 PM 41.5144 -78.1286 55° Northeast 211 243 14,900 -242 Descending Cleveland Center
Thu 01:22:53 PM 41.5483 -78.0633 55° Northeast 212 244 14,500 -581 Descending Cleveland Center
Thu 01:23:55 PM 41.5864 -77.9911 55° Northeast 232 267 13,700 -823 Descending Cleveland Center
Thu 01:24:57 PM 41.6233 -77.9175 56° Northeast 233 268 12,800 -919 Descending Cleveland Center
Thu 01:25:59 PM 41.6644 -77.8261 59° Northeast 240 276 11,800 -912 Descending Cleveland Center
Thu 01:27:02 PM 41.7008 -77.7556 55° Northeast 237 273 10,900 -912 Descending Cleveland Center
Thu 01:28:04 PM 41.7383 -77.6872 54° Northeast 234 269 9,900 -871 Descending Cleveland Center
Thu 01:29:06 PM 41.7761 -77.6172 54° Northeast 234 269 9,100 -435 Descending Cleveland Center
Thu 01:30:08 PM 41.8114 -77.5542 53° Northeast 220 253 9,000 -290 Descending Cleveland Center
Thu 01:31:10 PM 41.8456 -77.4883 55° Northeast 202 232 8,500 -677 Descending Cleveland Center
Thu 01:32:12 PM 41.8822 -77.4239 53° Northeast 210 242 7,600 -864 Descending Cleveland Center
Thu 01:33:15 PM 41.9150 -77.3569 57° Northeast 214 246 6,700 -960 Descending Cleveland Center
Thu 01:34:17 PM 41.9569 -77.2797 54° Northeast 214 246 5,600 -823 Descending Cleveland Center
Thu 01:35:19 PM 41.9919 -77.2183 52° Northeast 213 245 5,000 -290 Descending Cleveland Center
Thu 01:36:21 PM 42.0242 -77.1603 53° Northeast 201 231 5,000  Level Cleveland Center
Thu 01:37:23 PM 42.0561 -77.1064 51° Northeast 193 222 5,000 -288 Level Cleveland Center
Thu 01:38:26 PM 42.0842 -77.0475 57° Northeast 190 219 4,400 -672 Descending Cleveland Center
Thu 01:39:28 PM 42.1253 -76.9739 53° Northeast 194 223 3,600 -823 Descending Cleveland Center
Thu 01:40:30 PM 42.1653 -76.9217 44° Northeast 199 229 2,700 -629 Descending Cleveland Center
Thu 01:41:32 PM 42.2031 -76.8767 41° Northeast 197 227 2,300 -242 Descending Cleveland Center
Thu 01:42:34 PM 42.2406 -76.8286 43° Northeast 195 224 2,200 -97 Descending Cleveland Center

Login

Don't have an account? Register now (free) for customized features, flight alerts, and more!